sensor_id;sensor_type;location;lat;lon;timestamp;P1;P2;P0
76238;PMS7003;65043;48.392;-4.472;2023-03-21T00:01:53;6.25;6.25;3.75
76238;PMS7003;65043;48.392;-4.472;2023-03-21T00:04:20;6.25;5.25;3.00
76238;PMS7003;65043;48.392;-4.472;2023-03-21T00:06:46;8.50;6.50;4.00
76238;PMS7003;65043;48.392;-4.472;2023-03-21T00:09:12;5.50;5.50;3.25
76238;PMS7003;65043;48.392;-4.472;2023-03-21T00:11:38;8.25;3.75;2.75
76238;PMS7003;65043;48.392;-4.472;2023-03-21T00:14:04;5.00;4.00;4.00
76238;PMS7003;65043;48.392;-4.472;2023-03-21T00:16:29;6.75;6.00;4.00
76238;PMS7003;65043;48.392;-4.472;2023-03-21T00:18:55;8.50;5.00;4.00
76238;PMS7003;65043;48.392;-4.472;2023-03-21T00:21:21;7.25;7.00;3.00
76238;PMS7003;65043;48.392;-4.472;2023-03-21T00:23:52;5.00;5.00;3.75
76238;PMS7003;65043;48.392;-4.472;2023-03-21T00:26:18;10.75;7.00;4.00
76238;PMS7003;65043;48.392;-4.472;2023-03-21T00:28:46;5.50;5.50;4.00
76238;PMS7003;65043;48.392;-4.472;2023-03-21T00:31:12;7.75;6.25;5.00
76238;PMS7003;65043;48.392;-4.472;2023-03-21T00:33:38;6.00;5.00;4.00
76238;PMS7003;65043;48.392;-4.472;2023-03-21T00:36:04;9.00;6.00;5.00
76238;PMS7003;65043;48.392;-4.472;2023-03-21T00:38:30;8.00;5.75;2.75
76238;PMS7003;65043;48.392;-4.472;2023-03-21T00:40:56;8.00;6.50;4.00
76238;PMS7003;65043;48.392;-4.472;2023-03-21T00:43:21;4.75;2.50;1.50
76238;PMS7003;65043;48.392;-4.472;2023-03-21T00:45:53;6.00;4.75;3.00
76238;PMS7003;65043;48.392;-4.472;2023-03-21T00:48:20;4.00;4.00;2.75
76238;PMS7003;65043;48.392;-4.472;2023-03-21T00:50:46;5.00;5.00;3.50
76238;PMS7003;65043;48.392;-4.472;2023-03-21T00:53:12;4.25;4.00;3.00
76238;PMS7003;65043;48.392;-4.472;2023-03-21T00:55:39;10.75;6.75;4.00
76238;PMS7003;65043;48.392;-4.472;2023-03-21T00:58:05;7.75;5.00;4.00
76238;PMS7003;65043;48.392;-4.472;2023-03-21T01:00:31;6.50;6.50;4.00
76238;PMS7003;65043;48.392;-4.472;2023-03-21T01:02:57;5.00;4.00;3.00
76238;PMS7003;65043;48.392;-4.472;2023-03-21T01:05:29;8.75;6.75;4.00
76238;PMS7003;65043;48.392;-4.472;2023-03-21T01:08:16;5.25;5.00;3.00
76238;PMS7003;65043;48.392;-4.472;2023-03-21T01:10:44;8.00;6.50;4.75
76238;PMS7003;65043;48.392;-4.472;2023-03-21T01:13:11;7.50;5.00;4.00
76238;PMS7003;65043;48.392;-4.472;2023-03-21T01:15:41;8.00;7.75;5.75
76238;PMS7003;65043;48.392;-4.472;2023-03-21T01:18:13;6.00;6.00;4.75
76238;PMS7003;65043;48.392;-4.472;2023-03-21T01:20:40;2.75;2.00;1.25
76238;PMS7003;65043;48.392;-4.472;2023-03-21T01:23:06;3.00;3.00;2.00
76238;PMS7003;65043;48.392;-4.472;2023-03-21T01:25:32;2.25;2.25;2.00
76238;PMS7003;65043;48.392;-4.472;2023-03-21T01:27:58;3.75;3.75;2.75
76238;PMS7003;65043;48.392;-4.472;2023-03-21T01:30:23;5.00;5.00;3.75
76238;PMS7003;65043;48.392;-4.472;2023-03-21T01:32:48;5.00;4.75;3.00
76238;PMS7003;65043;48.392;-4.472;2023-03-21T01:35:14;7.00;5.25;2.50
76238;PMS7003;65043;48.392;-4.472;2023-03-21T01:37:40;4.00;4.00;2.00
76238;PMS7003;65043;48.392;-4.472;2023-03-21T01:40:05;2.50;2.25;2.00
76238;PMS7003;65043;48.392;-4.472;2023-03-21T01:42:37;4.75;2.75;1.25
76238;PMS7003;65043;48.392;-4.472;2023-03-21T01:45:05;3.00;3.00;1.50
76238;PMS7003;65043;48.392;-4.472;2023-03-21T01:47:51;3.00;1.50;1.00
76238;PMS7003;65043;48.392;-4.472;2023-03-21T01:50:16;1.00;1.00;1.00
76238;PMS7003;65043;48.392;-4.472;2023-03-21T01:52:46;4.00;2.00;1.50
76238;PMS7003;65043;48.392;-4.472;2023-03-21T01:55:15;1.75;1.75;1.00
76238;PMS7003;65043;48.392;-4.472;2023-03-21T01:57:46;3.25;2.00;1.00
76238;PMS7003;65043;48.392;-4.472;2023-03-21T02:00:17;3.75;3.25;2.00
76238;PMS7003;65043;48.392;-4.472;2023-03-21T02:02:45;2.25;2.25;1.00
76238;PMS7003;65043;48.392;-4.472;2023-03-21T02:05:21;5.00;4.00;2.00
76238;PMS7003;65043;48.392;-4.472;2023-03-21T02:07:59;3.00;2.25;1.75
76238;PMS7003;65043;48.392;-4.472;2023-03-21T02:10:24;5.75;4.00;1.00
76238;PMS7003;65043;48.392;-4.472;2023-03-21T02:12:52;4.75;3.50;1.25
76238;PMS7003;65043;48.392;-4.472;2023-03-21T02:15:19;2.75;2.25;1.75
76238;PMS7003;65043;48.392;-4.472;2023-03-21T02:17:51;3.75;2.25;2.00
76238;PMS7003;65043;48.392;-4.472;2023-03-21T02:42:00;3.50;2.50;1.00
76238;PMS7003;65043;48.392;-4.472;2023-03-21T02:47:13;4.25;3.00;1.00
76238;PMS7003;65043;48.392;-4.472;2023-03-21T02:49:51;5.75;3.00;2.00
76238;PMS7003;65043;48.392;-4.472;2023-03-21T02:52:28;9.50;2.50;1.75
76238;PMS7003;65043;48.392;-4.472;2023-03-21T02:54:57;4.75;3.25;1.00
76238;PMS7003;65043;48.392;-4.472;2023-03-21T02:57:24;4.00;2.00;1.00
76238;PMS7003;65043;48.392;-4.472;2023-03-21T02:59:50;5.75;3.75;1.00
76238;PMS7003;65043;48.392;-4.472;2023-03-21T03:02:18;4.25;3.00;1.00
76238;PMS7003;65043;48.392;-4.472;2023-03-21T03:04:48;5.75;3.25;1.25
76238;PMS7003;65043;48.392;-4.472;2023-03-21T03:07:20;6.25;4.75;1.50
76238;PMS7003;65043;48.392;-4.472;2023-03-21T03:12:53;3.50;2.75;1.50
76238;PMS7003;65043;48.392;-4.472;2023-03-21T03:25:01;5.25;4.00;2.00
76238;PMS7003;65043;48.392;-4.472;2023-03-21T03:27:34;4.25;1.25;0.75
76238;PMS7003;65043;48.392;-4.472;2023-03-21T03:30:04;7.00;3.25;1.00
76238;PMS7003;65043;48.392;-4.472;2023-03-21T03:32:34;6.50;3.00;2.00
76238;PMS7003;65043;48.392;-4.472;2023-03-21T03:35:09;3.00;3.00;1.25
76238;PMS7003;65043;48.392;-4.472;2023-03-21T03:37:37;7.50;4.25;1.00
76238;PMS7003;65043;48.392;-4.472;2023-03-21T03:40:09;3.75;2.00;1.00
76238;PMS7003;65043;48.392;-4.472;2023-03-21T03:42:47;4.00;1.50;1.00
76238;PMS7003;65043;48.392;-4.472;2023-03-21T03:45:16;5.00;2.00;1.00
76238;PMS7003;65043;48.392;-4.472;2023-03-21T03:47:54;4.25;2.25;1.00
76238;PMS7003;65043;48.392;-4.472;2023-03-21T03:50:32;9.00;3.50;0.50
76238;PMS7003;65043;48.392;-4.472;2023-03-21T03:53:06;7.50;4.25;2.00
76238;PMS7003;65043;48.392;-4.472;2023-03-21T03:55:42;4.75;2.25;1.00
76238;PMS7003;65043;48.392;-4.472;2023-03-21T03:58:09;2.75;2.25;1.00
76238;PMS7003;65043;48.392;-4.472;2023-03-21T04:00:35;4.75;3.25;1.50
76238;PMS7003;65043;48.392;-4.472;2023-03-21T04:03:01;4.50;3.00;1.00
76238;PMS7003;65043;48.392;-4.472;2023-03-21T04:05:26;4.75;3.25;1.00
76238;PMS7003;65043;48.392;-4.472;2023-03-21T04:07:52;6.50;3.75;1.00
76238;PMS7003;65043;48.392;-4.472;2023-03-21T04:10:18;7.00;1.25;1.00
76238;PMS7003;65043;48.392;-4.472;2023-03-21T04:12:45;6.25;3.50;1.25
76238;PMS7003;65043;48.392;-4.472;2023-03-21T04:15:11;6.00;5.00;2.00
76238;PMS7003;65043;48.392;-4.472;2023-03-21T04:17:37;6.25;3.00;1.00
76238;PMS7003;65043;48.392;-4.472;2023-03-21T04:20:04;5.50;3.25;1.00
76238;PMS7003;65043;48.392;-4.472;2023-03-21T04:22:30;5.00;5.00;2.00
76238;PMS7003;65043;48.392;-4.472;2023-03-21T04:24:57;5.25;4.00;1.25
76238;PMS7003;65043;48.392;-4.472;2023-03-21T04:27:25;6.00;2.25;1.00
76238;PMS7003;65043;48.392;-4.472;2023-03-21T04:29:51;8.00;5.25;2.00
76238;PMS7003;65043;48.392;-4.472;2023-03-21T04:32:17;5.75;3.75;1.00
76238;PMS7003;65043;48.392;-4.472;2023-03-21T04:34:43;10.50;5.00;1.50
76238;PMS7003;65043;48.392;-4.472;2023-03-21T04:37:16;3.25;2.25;0.50
76238;PMS7003;65043;48.392;-4.472;2023-03-21T04:39:43;9.00;5.00;3.00
76238;PMS7003;65043;48.392;-4.472;2023-03-21T04:42:11;8.25;4.00;1.00
76238;PMS7003;65043;48.392;-4.472;2023-03-21T04:44:43;3.25;2.00;1.00
76238;PMS7003;65043;48.392;-4.472;2023-03-21T04:47:09;7.25;4.75;1.50
76238;PMS7003;65043;48.392;-4.472;2023-03-21T04:49:37;8.00;4.00;2.25
76238;PMS7003;65043;48.392;-4.472;2023-03-21T04:52:02;5.75;4.00;2.25
76238;PMS7003;65043;48.392;-4.472;2023-03-21T04:54:28;4.25;3.00;1.00
76238;PMS7003;65043;48.392;-4.472;2023-03-21T04:56:53;3.00;3.00;1.00
76238;PMS7003;65043;48.392;-4.472;2023-03-21T04:59:19;6.25;4.75;1.00
76238;PMS7003;65043;48.392;-4.472;2023-03-21T05:01:45;9.50;3.25;1.00
76238;PMS7003;65043;48.392;-4.472;2023-03-21T05:04:12;7.25;4.50;1.00
76238;PMS7003;65043;48.392;-4.472;2023-03-21T05:06:38;7.00;3.00;1.00
76238;PMS7003;65043;48.392;-4.472;2023-03-21T05:09:06;3.50;3.00;1.00
76238;PMS7003;65043;48.392;-4.472;2023-03-21T05:11:33;5.00;4.00;1.00
76238;PMS7003;65043;48.392;-4.472;2023-03-21T05:14:02;9.50;4.00;1.50
76238;PMS7003;65043;48.392;-4.472;2023-03-21T05:16:28;4.75;4.00;1.25
76238;PMS7003;65043;48.392;-4.472;2023-03-21T05:18:58;5.00;2.00;1.00
76238;PMS7003;65043;48.392;-4.472;2023-03-21T05:21:28;4.00;3.00;1.75
76238;PMS7003;65043;48.392;-4.472;2023-03-21T05:23:58;6.25;2.00;1.00
76238;PMS7003;65043;48.392;-4.472;2023-03-21T05:26:27;3.25;2.75;1.00
76238;PMS7003;65043;48.392;-4.472;2023-03-21T05:28:53;7.75;5.25;1.00
76238;PMS7003;65043;48.392;-4.472;2023-03-21T05:31:19;6.00;3.00;1.00
76238;PMS7003;65043;48.392;-4.472;2023-03-21T05:33:45;6.75;4.25;1.00
76238;PMS7003;65043;48.392;-4.472;2023-03-21T05:36:11;8.25;3.75;1.50
76238;PMS7003;65043;48.392;-4.472;2023-03-21T05:38:37;6.00;3.00;1.00
76238;PMS7003;65043;48.392;-4.472;2023-03-21T05:41:09;8.00;4.25;2.00
76238;PMS7003;65043;48.392;-4.472;2023-03-21T05:43:35;5.00;4.00;2.00
76238;PMS7003;65043;48.392;-4.472;2023-03-21T05:46:00;5.75;2.00;1.00
76238;PMS7003;65043;48.392;-4.472;2023-03-21T05:48:26;6.75;2.00;1.00
76238;PMS7003;65043;48.392;-4.472;2023-03-21T05:50:52;5.75;2.25;1.00
76238;PMS7003;65043;48.392;-4.472;2023-03-21T05:53:17;10.00;3.50;1.00
76238;PMS7003;65043;48.392;-4.472;2023-03-21T05:55:43;5.00;5.00;2.00
76238;PMS7003;65043;48.392;-4.472;2023-03-21T05:58:08;12.25;4.25;2.00
76238;PMS7003;65043;48.392;-4.472;2023-03-21T06:00:33;12.75;3.75;1.25
76238;PMS7003;65043;48.392;-4.472;2023-03-21T06:02:59;10.75;3.75;2.00
76238;PMS7003;65043;48.392;-4.472;2023-03-21T06:05:24;7.00;3.75;1.00
76238;PMS7003;65043;48.392;-4.472;2023-03-21T06:07:50;6.25;4.00;1.75
76238;PMS7003;65043;48.392;-4.472;2023-03-21T06:10:15;6.25;2.50;1.00
76238;PMS7003;65043;48.392;-4.472;2023-03-21T06:12:41;7.00;3.00;1.00
76238;PMS7003;65043;48.392;-4.472;2023-03-21T06:15:07;5.25;3.00;0.50
76238;PMS7003;65043;48.392;-4.472;2023-03-21T06:17:33;6.75;1.50;1.00
76238;PMS7003;65043;48.392;-4.472;2023-03-21T06:19:59;11.00;5.50;2.00
76238;PMS7003;65043;48.392;-4.472;2023-03-21T06:22:29;7.25;4.00;1.50
76238;PMS7003;65043;48.392;-4.472;2023-03-21T06:24:55;9.25;3.25;2.00
76238;PMS7003;65043;48.392;-4.472;2023-03-21T06:27:20;6.50;4.00;1.00
76238;PMS7003;65043;48.392;-4.472;2023-03-21T06:29:46;7.00;4.50;1.00
76238;PMS7003;65043;48.392;-4.472;2023-03-21T06:32:11;7.50;4.25;1.50
76238;PMS7003;65043;48.392;-4.472;2023-03-21T06:34:37;8.75;4.00;2.00
76238;PMS7003;65043;48.392;-4.472;2023-03-21T06:37:02;7.00;2.25;1.00
76238;PMS7003;65043;48.392;-4.472;2023-03-21T06:39:28;9.50;4.75;2.00
76238;PMS7003;65043;48.392;-4.472;2023-03-21T06:41:55;6.50;5.00;1.00
76238;PMS7003;65043;48.392;-4.472;2023-03-21T06:44:21;10.75;4.00;1.00
76238;PMS7003;65043;48.392;-4.472;2023-03-21T06:46:48;6.50;3.50;1.75
76238;PMS7003;65043;48.392;-4.472;2023-03-21T06:49:14;7.00;3.50;1.00
76238;PMS7003;65043;48.392;-4.472;2023-03-21T06:51:40;10.00;4.50;2.00
76238;PMS7003;65043;48.392;-4.472;2023-03-21T06:54:05;9.75;4.50;1.00
76238;PMS7003;65043;48.392;-4.472;2023-03-21T06:56:30;10.50;6.75;2.00
76238;PMS7003;65043;48.392;-4.472;2023-03-21T06:58:56;5.00;3.00;1.00
76238;PMS7003;65043;48.392;-4.472;2023-03-21T07:01:21;12.25;5.50;2.00
76238;PMS7003;65043;48.392;-4.472;2023-03-21T07:03:46;10.50;4.25;2.00
76238;PMS7003;65043;48.392;-4.472;2023-03-21T07:06:12;6.50;4.25;3.00
76238;PMS7003;65043;48.392;-4.472;2023-03-21T07:08:38;7.00;5.00;3.00
76238;PMS7003;65043;48.392;-4.472;2023-03-21T07:11:04;7.25;6.25;3.00
76238;PMS7003;65043;48.392;-4.472;2023-03-21T07:13:30;8.25;5.75;2.00
76238;PMS7003;65043;48.392;-4.472;2023-03-21T07:15:56;6.00;4.25;2.00
76238;PMS7003;65043;48.392;-4.472;2023-03-21T07:18:22;7.25;5.00;2.00
76238;PMS7003;65043;48.392;-4.472;2023-03-21T07:20:48;6.00;4.00;1.50
76238;PMS7003;65043;48.392;-4.472;2023-03-21T07:23:16;6.75;5.00;2.75
76238;PMS7003;65043;48.392;-4.472;2023-03-21T07:25:42;6.00;6.00;2.75
76238;PMS7003;65043;48.392;-4.472;2023-03-21T07:28:07;9.00;7.00;2.50
76238;PMS7003;65043;48.392;-4.472;2023-03-21T07:30:33;20.25;7.00;2.00
76238;PMS7003;65043;48.392;-4.472;2023-03-21T07:32:59;9.50;5.25;1.75
76238;PMS7003;65043;48.392;-4.472;2023-03-21T07:35:25;11.00;6.50;3.00
76238;PMS7003;65043;48.392;-4.472;2023-03-21T07:37:50;9.50;4.50;2.00
76238;PMS7003;65043;48.392;-4.472;2023-03-21T07:40:16;6.00;4.00;2.00
76238;PMS7003;65043;48.392;-4.472;2023-03-21T07:42:42;1.25;1.25;0.25
76238;PMS7003;65043;48.392;-4.472;2023-03-21T07:45:08;2.50;1.00;0.00
76238;PMS7003;65043;48.392;-4.472;2023-03-21T07:47:34;3.75;2.75;0.75
76238;PMS7003;65043;48.392;-4.472;2023-03-21T07:50:00;3.00;2.00;1.00
76238;PMS7003;65043;48.392;-4.472;2023-03-21T07:52:28;4.00;2.00;1.00
76238;PMS7003;65043;48.392;-4.472;2023-03-21T07:54:54;5.25;3.25;0.00
76238;PMS7003;65043;48.392;-4.472;2023-03-21T07:57:20;3.75;3.00;1.00
76238;PMS7003;65043;48.392;-4.472;2023-03-21T07:59:45;5.00;2.50;1.00
76238;PMS7003;65043;48.392;-4.472;2023-03-21T08:02:12;3.50;1.75;1.00
76238;PMS7003;65043;48.392;-4.472;2023-03-21T08:04:39;3.00;2.00;1.00
76238;PMS7003;65043;48.392;-4.472;2023-03-21T08:07:05;3.50;1.25;0.75
76238;PMS7003;65043;48.392;-4.472;2023-03-21T08:09:31;6.25;2.75;1.00
76238;PMS7003;65043;48.392;-4.472;2023-03-21T08:11:56;5.25;4.00;2.00
76238;PMS7003;65043;48.392;-4.472;2023-03-21T08:14:22;6.75;3.25;2.00
76238;PMS7003;65043;48.392;-4.472;2023-03-21T08:16:47;3.25;3.25;0.75
76238;PMS7003;65043;48.392;-4.472;2023-03-21T08:19:13;9.00;4.00;1.00
76238;PMS7003;65043;48.392;-4.472;2023-03-21T08:21:38;5.25;2.00;1.00
76238;PMS7003;65043;48.392;-4.472;2023-03-21T08:24:04;2.00;2.00;1.00
76238;PMS7003;65043;48.392;-4.472;2023-03-21T08:26:31;6.50;2.00;1.00
76238;PMS7003;65043;48.392;-4.472;2023-03-21T08:28:58;3.25;3.00;1.25
76238;PMS7003;65043;48.392;-4.472;2023-03-21T08:31:24;5.25;2.75;1.00
76238;PMS7003;65043;48.392;-4.472;2023-03-21T08:33:49;3.75;3.00;1.00
76238;PMS7003;65043;48.392;-4.472;2023-03-21T08:36:18;6.00;3.75;1.00
76238;PMS7003;65043;48.392;-4.472;2023-03-21T08:38:43;5.75;4.00;1.50
76238;PMS7003;65043;48.392;-4.472;2023-03-21T08:41:12;6.25;3.25;1.00
76238;PMS7003;65043;48.392;-4.472;2023-03-21T08:43:38;5.75;2.00;1.00
76238;PMS7003;65043;48.392;-4.472;2023-03-21T08:46:04;5.00;3.25;2.00
76238;PMS7003;65043;48.392;-4.472;2023-03-21T08:48:29;5.25;2.25;1.25
76238;PMS7003;65043;48.392;-4.472;2023-03-21T08:50:55;7.75;4.00;1.25
76238;PMS7003;65043;48.392;-4.472;2023-03-21T08:53:20;5.50;4.25;1.00
76238;PMS7003;65043;48.392;-4.472;2023-03-21T08:55:47;5.25;4.00;1.50
76238;PMS7003;65043;48.392;-4.472;2023-03-21T08:58:13;5.25;3.75;1.00
76238;PMS7003;65043;48.392;-4.472;2023-03-21T09:00:38;6.50;5.00;2.00
76238;PMS7003;65043;48.392;-4.472;2023-03-21T09:03:04;7.50;5.00;1.75
76238;PMS7003;65043;48.392;-4.472;2023-03-21T09:05:30;10.25;5.50;1.00
76238;PMS7003;65043;48.392;-4.472;2023-03-21T09:07:55;5.25;5.00;2.00
76238;PMS7003;65043;48.392;-4.472;2023-03-21T09:10:24;5.25;4.50;2.00
76238;PMS7003;65043;48.392;-4.472;2023-03-21T09:12:50;7.00;4.00;1.75
76238;PMS7003;65043;48.392;-4.472;2023-03-21T09:15:17;8.75;4.50;2.00
76238;PMS7003;65043;48.392;-4.472;2023-03-21T09:17:46;6.00;4.50;1.75
76238;PMS7003;65043;48.392;-4.472;2023-03-21T09:20:14;10.50;5.25;2.00
76238;PMS7003;65043;48.392;-4.472;2023-03-21T09:22:45;6.50;3.25;1.00
76238;PMS7003;65043;48.392;-4.472;2023-03-21T09:25:13;9.75;3.50;1.00
76238;PMS7003;65043;48.392;-4.472;2023-03-21T09:27:39;9.00;5.50;2.00
76238;PMS7003;65043;48.392;-4.472;2023-03-21T09:30:05;6.25;3.75;1.25
76238;PMS7003;65043;48.392;-4.472;2023-03-21T09:32:33;6.75;3.75;1.00
76238;PMS7003;65043;48.392;-4.472;2023-03-21T09:34:59;4.75;3.00;1.50
76238;PMS7003;65043;48.392;-4.472;2023-03-21T09:37:25;8.00;5.50;1.50
76238;PMS7003;65043;48.392;-4.472;2023-03-21T09:39:51;6.50;4.50;2.00
76238;PMS7003;65043;48.392;-4.472;2023-03-21T09:47:46;9.00;3.00;1.00
76238;PMS7003;65043;48.392;-4.472;2023-03-21T09:50:21;8.75;5.00;1.75
76238;PMS7003;65043;48.392;-4.472;2023-03-21T09:53:02;10.75;8.75;2.50
76238;PMS7003;65043;48.392;-4.472;2023-03-21T09:55:35;10.00;6.00;1.00
76238;PMS7003;65043;48.392;-4.472;2023-03-21T09:58:04;7.00;4.00;1.75
76238;PMS7003;65043;48.392;-4.472;2023-03-21T10:00:36;10.75;4.50;2.00
76238;PMS7003;65043;48.392;-4.472;2023-03-21T10:03:15;6.75;3.00;1.00
76238;PMS7003;65043;48.392;-4.472;2023-03-21T10:05:49;8.50;4.50;1.00
76238;PMS7003;65043;48.392;-4.472;2023-03-21T10:08:23;8.00;3.50;1.00
76238;PMS7003;65043;48.392;-4.472;2023-03-21T10:10:59;8.50;4.50;1.00
76238;PMS7003;65043;48.392;-4.472;2023-03-21T10:13:38;8.00;4.50;2.00
76238;PMS7003;65043;48.392;-4.472;2023-03-21T10:16:14;6.00;3.00;1.00
76238;PMS7003;65043;48.392;-4.472;2023-03-21T10:18:41;8.00;5.75;2.00
76238;PMS7003;65043;48.392;-4.472;2023-03-21T10:21:17;10.00;3.00;1.00
76238;PMS7003;65043;48.392;-4.472;2023-03-21T10:23:47;4.75;4.00;1.00
76238;PMS7003;65043;48.392;-4.472;2023-03-21T10:26:16;8.25;4.50;1.50
76238;PMS7003;65043;48.392;-4.472;2023-03-21T10:28:44;7.75;5.00;2.75
76238;PMS7003;65043;48.392;-4.472;2023-03-21T10:31:14;2.50;2.50;1.00
76238;PMS7003;65043;48.392;-4.472;2023-03-21T10:33:42;8.00;5.00;1.00
76238;PMS7003;65043;48.392;-4.472;2023-03-21T10:36:12;4.25;2.25;0.75
76238;PMS7003;65043;48.392;-4.472;2023-03-21T10:38:45;10.00;4.50;2.00
76238;PMS7003;65043;48.392;-4.472;2023-03-21T10:41:17;4.25;3.00;1.00
76238;PMS7003;65043;48.392;-4.472;2023-03-21T10:43:45;4.00;2.75;1.00
76238;PMS7003;65043;48.392;-4.472;2023-03-21T10:46:19;4.00;3.50;2.00
76238;PMS7003;65043;48.392;-4.472;2023-03-21T10:48:48;5.50;3.00;1.00
76238;PMS7003;65043;48.392;-4.472;2023-03-21T10:51:24;5.00;3.25;1.50
76238;PMS7003;65043;48.392;-4.472;2023-03-21T10:53:55;6.25;4.25;2.00
76238;PMS7003;65043;48.392;-4.472;2023-03-21T10:56:27;5.00;3.75;1.00
76238;PMS7003;65043;48.392;-4.472;2023-03-21T10:58:56;3.75;3.75;2.00
76238;PMS7003;65043;48.392;-4.472;2023-03-21T11:01:25;10.50;7.00;3.00
76238;PMS7003;65043;48.392;-4.472;2023-03-21T11:04:16;8.00;2.50;1.00
76238;PMS7003;65043;48.392;-4.472;2023-03-21T11:06:44;4.00;2.75;1.00
76238;PMS7003;65043;48.392;-4.472;2023-03-21T11:09:17;7.50;4.50;2.00
76238;PMS7003;65043;48.392;-4.472;2023-03-21T11:11:50;3.25;1.75;1.00
76238;PMS7003;65043;48.392;-4.472;2023-03-21T11:14:40;7.25;2.00;0.75
76238;PMS7003;65043;48.392;-4.472;2023-03-21T11:17:14;3.00;2.25;1.00
76238;PMS7003;65043;48.392;-4.472;2023-03-21T11:22:17;4.25;2.25;1.00
76238;PMS7003;65043;48.392;-4.472;2023-03-21T11:24:48;6.00;2.00;1.00
76238;PMS7003;65043;48.392;-4.472;2023-03-21T11:27:16;2.75;2.00;0.25
76238;PMS7003;65043;48.392;-4.472;2023-03-21T11:29:48;3.75;1.25;0.25
76238;PMS7003;65043;48.392;-4.472;2023-03-21T11:32:20;1.75;1.00;0.00
76238;PMS7003;65043;48.392;-4.472;2023-03-21T11:34:49;4.00;2.75;1.00
76238;PMS7003;65043;48.392;-4.472;2023-03-21T11:37:42;4.00;2.25;1.00
76238;PMS7003;65043;48.392;-4.472;2023-03-21T11:42:54;5.75;3.00;1.00
76238;PMS7003;65043;48.392;-4.472;2023-03-21T11:47:53;2.75;2.00;1.00
76238;PMS7003;65043;48.392;-4.472;2023-03-21T11:50:41;5.25;2.00;1.00
76238;PMS7003;65043;48.392;-4.472;2023-03-21T12:09:45;5.75;2.00;0.50
76238;PMS7003;65043;48.392;-4.472;2023-03-21T12:17:53;6.75;2.00;0.75
76238;PMS7003;65043;48.392;-4.472;2023-03-21T12:37:32;6.00;1.00;0.00
76238;PMS7003;65043;48.392;-4.472;2023-03-21T12:40:43;7.25;2.00;0.75
76238;PMS7003;65043;48.392;-4.472;2023-03-21T12:45:57;5.25;2.25;0.75
76238;PMS7003;65043;48.392;-4.472;2023-03-21T12:48:35;4.00;2.00;1.00
76238;PMS7003;65043;48.392;-4.472;2023-03-21T12:51:10;6.50;1.75;0.00
76238;PMS7003;65043;48.392;-4.472;2023-03-21T12:53:42;4.75;2.00;0.50
76238;PMS7003;65043;48.392;-4.472;2023-03-21T12:56:10;1.75;1.00;0.25
76238;PMS7003;65043;48.392;-4.472;2023-03-21T12:58:46;4.25;0.50;0.00
76238;PMS7003;65043;48.392;-4.472;2023-03-21T13:01:17;2.50;0.50;0.00
76238;PMS7003;65043;48.392;-4.472;2023-03-21T13:03:46;2.25;0.50;0.50
76238;PMS7003;65043;48.392;-4.472;2023-03-21T13:06:20;2.75;0.50;0.00
76238;PMS7003;65043;48.392;-4.472;2023-03-21T13:11:20;1.75;0.75;0.25
76238;PMS7003;65043;48.392;-4.472;2023-03-21T13:14:00;3.75;1.75;0.50
76238;PMS7003;65043;48.392;-4.472;2023-03-21T13:16:35;1.50;1.50;0.00
76238;PMS7003;65043;48.392;-4.472;2023-03-21T13:24:57;2.75;2.75;0.50
76238;PMS7003;65043;48.392;-4.472;2023-03-21T13:27:41;1.75;1.75;0.50
76238;PMS7003;65043;48.392;-4.472;2023-03-21T13:32:40;3.50;1.75;0.50
76238;PMS7003;65043;48.392;-4.472;2023-03-21T13:35:14;1.75;0.75;0.00
76238;PMS7003;65043;48.392;-4.472;2023-03-21T13:37:59;2.50;1.25;0.00
76238;PMS7003;65043;48.392;-4.472;2023-03-21T13:40:34;1.75;0.25;0.00
76238;PMS7003;65043;48.392;-4.472;2023-03-21T13:43:04;4.50;2.00;0.25
76238;PMS7003;65043;48.392;-4.472;2023-03-21T13:45:52;2.75;1.50;0.25
76238;PMS7003;65043;48.392;-4.472;2023-03-21T13:48:28;2.75;1.00;0.00
76238;PMS7003;65043;48.392;-4.472;2023-03-21T13:51:13;6.00;2.25;0.00
76238;PMS7003;65043;48.392;-4.472;2023-03-21T13:53:43;4.25;0.75;0.00
76238;PMS7003;65043;48.392;-4.472;2023-03-21T13:56:29;6.00;2.00;0.00
76238;PMS7003;65043;48.392;-4.472;2023-03-21T14:04:37;6.25;2.25;0.25
76238;PMS7003;65043;48.392;-4.472;2023-03-21T14:12:15;1.50;0.00;0.00
76238;PMS7003;65043;48.392;-4.472;2023-03-21T14:14:48;4.50;3.25;1.00
76238;PMS7003;65043;48.392;-4.472;2023-03-21T14:17:24;1.75;0.75;0.00
76238;PMS7003;65043;48.392;-4.472;2023-03-21T14:19:58;3.25;1.75;0.00
76238;PMS7003;65043;48.392;-4.472;2023-03-21T14:22:38;3.50;1.00;0.00
76238;PMS7003;65043;48.392;-4.472;2023-03-21T14:25:06;1.75;1.50;0.00
76238;PMS7003;65043;48.392;-4.472;2023-03-21T14:27:44;3.00;2.00;0.50
76238;PMS7003;65043;48.392;-4.472;2023-03-21T14:30:19;3.00;1.50;0.50
76238;PMS7003;65043;48.392;-4.472;2023-03-21T14:32:48;2.50;2.00;1.00
76238;PMS7003;65043;48.392;-4.472;2023-03-21T14:35:13;3.00;1.50;0.00
76238;PMS7003;65043;48.392;-4.472;2023-03-21T14:37:40;3.50;1.00;0.50
76238;PMS7003;65043;48.392;-4.472;2023-03-21T14:40:17;4.00;2.00;0.50
76238;PMS7003;65043;48.392;-4.472;2023-03-21T14:42:50;4.50;4.25;0.50
76238;PMS7003;65043;48.392;-4.472;2023-03-21T14:45:16;5.00;2.00;1.00
76238;PMS7003;65043;48.392;-4.472;2023-03-21T14:50:27;5.00;4.00;1.50
76238;PMS7003;65043;48.392;-4.472;2023-03-21T14:53:14;2.25;2.25;0.00
76238;PMS7003;65043;48.392;-4.472;2023-03-21T14:55:49;4.75;3.25;0.50
76238;PMS7003;65043;48.392;-4.472;2023-03-21T14:58:21;2.75;2.75;0.25
76238;PMS7003;65043;48.392;-4.472;2023-03-21T15:00:48;4.50;2.25;1.25
76238;PMS7003;65043;48.392;-4.472;2023-03-21T15:03:15;4.75;2.25;0.25
76238;PMS7003;65043;48.392;-4.472;2023-03-21T15:05:43;3.75;1.00;1.00
76238;PMS7003;65043;48.392;-4.472;2023-03-21T15:10:35;5.50;3.25;1.00
76238;PMS7003;65043;48.392;-4.472;2023-03-21T15:13:11;3.50;3.50;1.00
76238;PMS7003;65043;48.392;-4.472;2023-03-21T15:15:40;5.25;4.00;1.00
76238;PMS7003;65043;48.392;-4.472;2023-03-21T15:18:06;3.25;2.00;0.00
76238;PMS7003;65043;48.392;-4.472;2023-03-21T15:20:35;5.25;2.50;0.25
76238;PMS7003;65043;48.392;-4.472;2023-03-21T15:23:02;8.00;3.25;0.25
76238;PMS7003;65043;48.392;-4.472;2023-03-21T15:25:50;3.75;3.00;1.00
76238;PMS7003;65043;48.392;-4.472;2023-03-21T15:28:15;4.50;1.50;0.50
76238;PMS7003;65043;48.392;-4.472;2023-03-21T15:30:48;5.00;2.50;0.25
76238;PMS7003;65043;48.392;-4.472;2023-03-21T15:33:15;3.25;1.25;0.00
76238;PMS7003;65043;48.392;-4.472;2023-03-21T15:35:43;5.00;1.25;0.00
76238;PMS7003;65043;48.392;-4.472;2023-03-21T15:38:31;2.50;0.50;0.25
76238;PMS7003;65043;48.392;-4.472;2023-03-21T15:43:49;3.00;2.00;0.25
76238;PMS7003;65043;48.392;-4.472;2023-03-21T15:46:56;3.25;1.50;0.50
76238;PMS7003;65043;48.392;-4.472;2023-03-21T15:49:23;1.50;0.25;0.00
76238;PMS7003;65043;48.392;-4.472;2023-03-21T15:56:56;6.00;2.00;0.75
76238;PMS7003;65043;48.392;-4.472;2023-03-21T15:59:26;5.00;3.00;1.25
76238;PMS7003;65043;48.392;-4.472;2023-03-21T16:01:54;3.25;1.75;0.50
76238;PMS7003;65043;48.392;-4.472;2023-03-21T16:04:19;8.75;3.75;1.00
76238;PMS7003;65043;48.392;-4.472;2023-03-21T16:07:12;3.75;1.00;1.00
76238;PMS7003;65043;48.392;-4.472;2023-03-21T16:09:44;3.75;3.00;1.00
76238;PMS7003;65043;48.392;-4.472;2023-03-21T16:12:11;8.25;4.25;2.25
76238;PMS7003;65043;48.392;-4.472;2023-03-21T16:14:39;6.00;3.00;2.00
76238;PMS7003;65043;48.392;-4.472;2023-03-21T16:20:00;4.25;1.50;0.75
76238;PMS7003;65043;48.392;-4.472;2023-03-21T16:22:26;8.00;1.75;0.50
76238;PMS7003;65043;48.392;-4.472;2023-03-21T16:24:53;6.25;3.00;0.25
76238;PMS7003;65043;48.392;-4.472;2023-03-21T16:27:18;1.25;0.50;0.50
76238;PMS7003;65043;48.392;-4.472;2023-03-21T16:29:44;3.50;1.50;0.25
76238;PMS7003;65043;48.392;-4.472;2023-03-21T16:32:14;4.75;2.50;0.50